sensor_id;sensor_type;location;lat;lon;timestamp;temperature;humidity
12977;DHT22;6553;48.412;9.514;2022-09-29T00:01:29;17.50;71.30
12977;DHT22;6553;48.412;9.514;2022-09-29T00:03:55;17.50;71.30
12977;DHT22;6553;48.412;9.514;2022-09-29T00:06:21;17.50;71.30
12977;DHT22;6553;48.412;9.514;2022-09-29T00:08:47;17.50;71.30
12977;DHT22;6553;48.412;9.514;2022-09-29T00:11:17;17.50;71.20
12977;DHT22;6553;48.412;9.514;2022-09-29T00:13:44;17.40;71.10
12977;DHT22;6553;48.412;9.514;2022-09-29T00:16:11;17.50;71.30
12977;DHT22;6553;48.412;9.514;2022-09-29T00:18:38;17.40;71.10
12977;DHT22;6553;48.412;9.514;2022-09-29T00:21:16;17.40;71.10
12977;DHT22;6553;48.412;9.514;2022-09-29T00:23:46;17.40;71.10
12977;DHT22;6553;48.412;9.514;2022-09-29T00:26:16;17.50;71.30
12977;DHT22;6553;48.412;9.514;2022-09-29T00:28:56;17.50;71.30
12977;DHT22;6553;48.412;9.514;2022-09-29T00:31:28;17.50;71.30
12977;DHT22;6553;48.412;9.514;2022-09-29T00:33:55;17.40;71.20
12977;DHT22;6553;48.412;9.514;2022-09-29T00:36:23;17.40;71.20
12977;DHT22;6553;48.412;9.514;2022-09-29T00:38:50;17.50;71.20
12977;DHT22;6553;48.412;9.514;2022-09-29T00:41:41;17.40;71.10
12977;DHT22;6553;48.412;9.514;2022-09-29T00:47:18;17.40;71.20
12977;DHT22;6553;48.412;9.514;2022-09-29T00:49:48;17.40;71.20
12977;DHT22;6553;48.412;9.514;2022-09-29T00:52:24;17.40;71.10
12977;DHT22;6553;48.412;9.514;2022-09-29T00:55:06;17.40;71.20
12977;DHT22;6553;48.412;9.514;2022-09-29T00:57:49;17.40;71.20
12977;DHT22;6553;48.412;9.514;2022-09-29T01:00:20;17.40;71.10
12977;DHT22;6553;48.412;9.514;2022-09-29T01:02:51;17.40;71.10
12977;DHT22;6553;48.412;9.514;2022-09-29T01:05:29;17.40;71.10
12977;DHT22;6553;48.412;9.514;2022-09-29T01:08:05;17.40;71.10
12977;DHT22;6553;48.412;9.514;2022-09-29T01:10:38;17.40;71.20
12977;DHT22;6553;48.412;9.514;2022-09-29T01:13:05;17.40;71.20
12977;DHT22;6553;48.412;9.514;2022-09-29T01:15:31;17.40;71.10
12977;DHT22;6553;48.412;9.514;2022-09-29T01:17:57;17.40;71.10
12977;DHT22;6553;48.412;9.514;2022-09-29T01:20:24;17.40;71.20
12977;DHT22;6553;48.412;9.514;2022-09-29T01:40:53;17.40;71.10
12977;DHT22;6553;48.412;9.514;2022-09-29T01:43:35;17.40;71.10
12977;DHT22;6553;48.412;9.514;2022-09-29T01:46:25;17.40;71.20
12977;DHT22;6553;48.412;9.514;2022-09-29T01:48:56;17.40;71.10
12977;DHT22;6553;48.412;9.514;2022-09-29T01:51:37;17.40;71.10
12977;DHT22;6553;48.412;9.514;2022-09-29T01:54:16;17.40;71.10
12977;DHT22;6553;48.412;9.514;2022-09-29T01:57:06;17.40;71.20
12977;DHT22;6553;48.412;9.514;2022-09-29T02:00:07;17.40;71.20
12977;DHT22;6553;48.412;9.514;2022-09-29T02:05:43;17.40;71.20
12977;DHT22;6553;48.412;9.514;2022-09-29T02:08:20;17.40;71.10
12977;DHT22;6553;48.412;9.514;2022-09-29T02:11:02;17.40;71.20
12977;DHT22;6553;48.412;9.514;2022-09-29T02:13:34;17.40;71.20
12977;DHT22;6553;48.412;9.514;2022-09-29T02:16:18;17.40;71.20
12977;DHT22;6553;48.412;9.514;2022-09-29T02:18:56;17.40;71.20
12977;DHT22;6553;48.412;9.514;2022-09-29T02:21:27;17.40;71.20
12977;DHT22;6553;48.412;9.514;2022-09-29T02:23:53;17.40;71.20
12977;DHT22;6553;48.412;9.514;2022-09-29T02:26:20;17.40;71.10
12977;DHT22;6553;48.412;9.514;2022-09-29T02:28:48;17.40;71.10
12977;DHT22;6553;48.412;9.514;2022-09-29T02:31:15;17.40;71.10
12977;DHT22;6553;48.412;9.514;2022-09-29T02:33:41;17.40;71.10
12977;DHT22;6553;48.412;9.514;2022-09-29T02:36:17;17.40;71.20
12977;DHT22;6553;48.412;9.514;2022-09-29T02:51:27;17.40;71.20
12977;DHT22;6553;48.412;9.514;2022-09-29T02:54:24;17.40;71.20
12977;DHT22;6553;48.412;9.514;2022-09-29T02:57:19;17.40;71.10
12977;DHT22;6553;48.412;9.514;2022-09-29T03:02:34;17.40;71.10
12977;DHT22;6553;48.412;9.514;2022-09-29T03:05:05;17.40;71.20
12977;DHT22;6553;48.412;9.514;2022-09-29T03:07:35;17.40;71.10
12977;DHT22;6553;48.412;9.514;2022-09-29T03:10:02;17.40;71.10
12977;DHT22;6553;48.412;9.514;2022-09-29T03:12:29;17.40;71.10
12977;DHT22;6553;48.412;9.514;2022-09-29T03:14:55;17.40;71.10
12977;DHT22;6553;48.412;9.514;2022-09-29T03:17:21;17.40;71.20
12977;DHT22;6553;48.412;9.514;2022-09-29T03:19:47;17.40;71.10
12977;DHT22;6553;48.412;9.514;2022-09-29T03:22:13;17.40;71.10
12977;DHT22;6553;48.412;9.514;2022-09-29T03:24:39;17.40;71.10
12977;DHT22;6553;48.412;9.514;2022-09-29T03:27:07;17.40;71.10
12977;DHT22;6553;48.412;9.514;2022-09-29T03:29:34;17.30;71.00
12977;DHT22;6553;48.412;9.514;2022-09-29T03:32:01;17.40;71.00
12977;DHT22;6553;48.412;9.514;2022-09-29T03:34:27;17.40;71.00
12977;DHT22;6553;48.412;9.514;2022-09-29T03:36:53;17.40;71.00
12977;DHT22;6553;48.412;9.514;2022-09-29T03:39:19;17.40;71.10
12977;DHT22;6553;48.412;9.514;2022-09-29T03:41:45;17.30;70.90
12977;DHT22;6553;48.412;9.514;2022-09-29T03:44:11;17.30;71.00
12977;DHT22;6553;48.412;9.514;2022-09-29T03:46:37;17.30;71.00
12977;DHT22;6553;48.412;9.514;2022-09-29T03:49:03;17.30;71.00
12977;DHT22;6553;48.412;9.514;2022-09-29T03:51:29;17.40;71.00
12977;DHT22;6553;48.412;9.514;2022-09-29T03:53:54;17.30;71.00
12977;DHT22;6553;48.412;9.514;2022-09-29T03:56:20;17.30;71.00
12977;DHT22;6553;48.412;9.514;2022-09-29T03:58:46;17.30;71.00
12977;DHT22;6553;48.412;9.514;2022-09-29T04:01:12;17.40;71.10
12977;DHT22;6553;48.412;9.514;2022-09-29T04:03:38;17.40;71.10
12977;DHT22;6553;48.412;9.514;2022-09-29T04:06:03;17.30;71.00
12977;DHT22;6553;48.412;9.514;2022-09-29T04:08:29;17.30;71.00
12977;DHT22;6553;48.412;9.514;2022-09-29T04:10:55;17.40;71.00
12977;DHT22;6553;48.412;9.514;2022-09-29T04:13:21;17.40;71.10
12977;DHT22;6553;48.412;9.514;2022-09-29T04:15:48;17.30;70.90
12977;DHT22;6553;48.412;9.514;2022-09-29T04:18:14;17.40;71.80
12977;DHT22;6553;48.412;9.514;2022-09-29T04:20:40;17.30;71.00
12977;DHT22;6553;48.412;9.514;2022-09-29T04:23:06;17.40;71.10
12977;DHT22;6553;48.412;9.514;2022-09-29T04:25:32;17.30;71.00
12977;DHT22;6553;48.412;9.514;2022-09-29T04:27:58;17.30;71.00
12977;DHT22;6553;48.412;9.514;2022-09-29T04:30:24;17.30;70.90
12977;DHT22;6553;48.412;9.514;2022-09-29T04:32:50;17.30;70.90
12977;DHT22;6553;48.412;9.514;2022-09-29T04:35:16;17.30;71.60
12977;DHT22;6553;48.412;9.514;2022-09-29T04:37:42;17.30;70.90
12977;DHT22;6553;48.412;9.514;2022-09-29T04:40:08;17.30;71.00
12977;DHT22;6553;48.412;9.514;2022-09-29T04:42:34;17.30;71.00
12977;DHT22;6553;48.412;9.514;2022-09-29T04:45:00;17.30;71.00
12977;DHT22;6553;48.412;9.514;2022-09-29T04:47:26;17.30;71.00
12977;DHT22;6553;48.412;9.514;2022-09-29T04:49:51;17.30;71.00
12977;DHT22;6553;48.412;9.514;2022-09-29T04:52:17;17.30;71.00
12977;DHT22;6553;48.412;9.514;2022-09-29T04:54:43;17.30;71.00
12977;DHT22;6553;48.412;9.514;2022-09-29T04:57:09;17.30;71.00
12977;DHT22;6553;48.412;9.514;2022-09-29T04:59:35;17.30;71.00
12977;DHT22;6553;48.412;9.514;2022-09-29T05:02:00;17.30;71.00
12977;DHT22;6553;48.412;9.514;2022-09-29T05:04:26;17.30;71.00
12977;DHT22;6553;48.412;9.514;2022-09-29T05:06:52;17.30;71.00
12977;DHT22;6553;48.412;9.514;2022-09-29T05:09:18;17.30;71.00
12977;DHT22;6553;48.412;9.514;2022-09-29T05:11:43;17.30;71.00
12977;DHT22;6553;48.412;9.514;2022-09-29T05:14:11;17.30;71.00
12977;DHT22;6553;48.412;9.514;2022-09-29T05:16:37;17.30;71.00
12977;DHT22;6553;48.412;9.514;2022-09-29T05:19:03;17.30;71.00
12977;DHT22;6553;48.412;9.514;2022-09-29T05:21:29;17.30;71.00
12977;DHT22;6553;48.412;9.514;2022-09-29T05:23:55;17.30;71.00
12977;DHT22;6553;48.412;9.514;2022-09-29T05:26:21;17.30;70.90
12977;DHT22;6553;48.412;9.514;2022-09-29T05:28:47;17.30;71.00
12977;DHT22;6553;48.412;9.514;2022-09-29T05:31:14;17.30;71.00
12977;DHT22;6553;48.412;9.514;2022-09-29T05:33:40;17.30;71.00
12977;DHT22;6553;48.412;9.514;2022-09-29T05:36:08;17.30;71.00
12977;DHT22;6553;48.412;9.514;2022-09-29T05:38:37;17.30;71.00
12977;DHT22;6553;48.412;9.514;2022-09-29T05:41:08;17.30;71.00
12977;DHT22;6553;48.412;9.514;2022-09-29T05:43:35;17.30;71.00
12977;DHT22;6553;48.412;9.514;2022-09-29T05:46:06;17.30;71.00
12977;DHT22;6553;48.412;9.514;2022-09-29T05:48:33;17.30;71.00
12977;DHT22;6553;48.412;9.514;2022-09-29T05:51:06;17.30;71.00
12977;DHT22;6553;48.412;9.514;2022-09-29T05:53:36;17.30;71.00
12977;DHT22;6553;48.412;9.514;2022-09-29T05:56:07;17.30;71.00
12977;DHT22;6553;48.412;9.514;2022-09-29T05:58:35;17.30;71.00
12977;DHT22;6553;48.412;9.514;2022-09-29T06:01:11;17.30;71.00
12977;DHT22;6553;48.412;9.514;2022-09-29T06:03:38;17.30;71.70
12977;DHT22;6553;48.412;9.514;2022-09-29T06:06:09;17.30;70.90
12977;DHT22;6553;48.412;9.514;2022-09-29T06:08:39;17.30;71.10
12977;DHT22;6553;48.412;9.514;2022-09-29T06:11:10;17.30;70.90
12977;DHT22;6553;48.412;9.514;2022-09-29T06:13:42;17.30;71.00
12977;DHT22;6553;48.412;9.514;2022-09-29T06:16:10;17.30;70.90
12977;DHT22;6553;48.412;9.514;2022-09-29T06:18:37;17.30;71.00
12977;DHT22;6553;48.412;9.514;2022-09-29T06:21:07;17.30;70.90
12977;DHT22;6553;48.412;9.514;2022-09-29T06:23:35;17.30;71.00
12977;DHT22;6553;48.412;9.514;2022-09-29T06:26:11;17.30;71.00
12977;DHT22;6553;48.412;9.514;2022-09-29T06:28:38;17.30;71.00
12977;DHT22;6553;48.412;9.514;2022-09-29T06:31:11;17.30;70.90
12977;DHT22;6553;48.412;9.514;2022-09-29T06:33:38;17.30;71.00
12977;DHT22;6553;48.412;9.514;2022-09-29T06:36:19;17.30;71.00
12977;DHT22;6553;48.412;9.514;2022-09-29T06:39:07;17.30;71.00
12977;DHT22;6553;48.412;9.514;2022-09-29T06:41:34;17.30;71.50
12977;DHT22;6553;48.412;9.514;2022-09-29T06:44:01;17.30;70.90
12977;DHT22;6553;48.412;9.514;2022-09-29T06:46:27;17.30;70.90
12977;DHT22;6553;48.412;9.514;2022-09-29T06:48:54;17.30;71.00
12977;DHT22;6553;48.412;9.514;2022-09-29T06:51:21;17.30;70.90
12977;DHT22;6553;48.412;9.514;2022-09-29T06:53:48;17.20;70.90
12977;DHT22;6553;48.412;9.514;2022-09-29T06:56:15;17.30;71.00
12977;DHT22;6553;48.412;9.514;2022-09-29T06:58:42;17.30;70.90
12977;DHT22;6553;48.412;9.514;2022-09-29T07:01:09;17.20;70.80
12977;DHT22;6553;48.412;9.514;2022-09-29T07:03:36;17.30;71.00
12977;DHT22;6553;48.412;9.514;2022-09-29T07:06:06;17.30;70.90
12977;DHT22;6553;48.412;9.514;2022-09-29T07:08:34;17.30;71.00
12977;DHT22;6553;48.412;9.514;2022-09-29T07:11:04;17.30;70.90
12977;DHT22;6553;48.412;9.514;2022-09-29T07:13:31;17.30;70.90
12977;DHT22;6553;48.412;9.514;2022-09-29T07:16:11;17.20;70.80
12977;DHT22;6553;48.412;9.514;2022-09-29T07:18:40;17.30;70.80
12977;DHT22;6553;48.412;9.514;2022-09-29T07:21:08;17.30;70.90
12977;DHT22;6553;48.412;9.514;2022-09-29T07:23:37;17.30;70.90
12977;DHT22;6553;48.412;9.514;2022-09-29T07:26:06;17.20;70.80
12977;DHT22;6553;48.412;9.514;2022-09-29T07:28:33;17.20;70.70
12977;DHT22;6553;48.412;9.514;2022-09-29T07:31:08;17.30;70.80
12977;DHT22;6553;48.412;9.514;2022-09-29T07:33:36;17.30;70.90
12977;DHT22;6553;48.412;9.514;2022-09-29T07:36:02;17.30;70.90
12977;DHT22;6553;48.412;9.514;2022-09-29T07:38:29;17.30;70.90
12977;DHT22;6553;48.412;9.514;2022-09-29T07:41:02;17.30;70.90
12977;DHT22;6553;48.412;9.514;2022-09-29T07:43:31;17.30;70.90
12977;DHT22;6553;48.412;9.514;2022-09-29T07:45:57;17.30;70.80
12977;DHT22;6553;48.412;9.514;2022-09-29T07:48:27;17.30;70.80
12977;DHT22;6553;48.412;9.514;2022-09-29T07:51:20;17.30;70.80
12977;DHT22;6553;48.412;9.514;2022-09-29T07:53:47;17.30;70.70
12977;DHT22;6553;48.412;9.514;2022-09-29T07:56:13;17.30;70.70
12977;DHT22;6553;48.412;9.514;2022-09-29T07:58:44;17.30;70.70
12977;DHT22;6553;48.412;9.514;2022-09-29T08:01:11;17.30;70.70
12977;DHT22;6553;48.412;9.514;2022-09-29T08:03:40;17.30;70.70
12977;DHT22;6553;48.412;9.514;2022-09-29T08:06:08;17.30;70.70
12977;DHT22;6553;48.412;9.514;2022-09-29T08:08:37;17.30;70.70
12977;DHT22;6553;48.412;9.514;2022-09-29T08:11:09;17.30;70.70
12977;DHT22;6553;48.412;9.514;2022-09-29T08:13:37;17.30;70.70
12977;DHT22;6553;48.412;9.514;2022-09-29T08:16:05;17.30;70.70
12977;DHT22;6553;48.412;9.514;2022-09-29T08:18:34;17.30;70.70
12977;DHT22;6553;48.412;9.514;2022-09-29T08:21:01;17.30;70.70
12977;DHT22;6553;48.412;9.514;2022-09-29T08:23:27;17.30;70.70
12977;DHT22;6553;48.412;9.514;2022-09-29T08:26:08;17.30;70.70
12977;DHT22;6553;48.412;9.514;2022-09-29T08:28:37;17.30;70.60
12977;DHT22;6553;48.412;9.514;2022-09-29T08:31:09;17.30;70.60
12977;DHT22;6553;48.412;9.514;2022-09-29T08:33:50;17.40;70.70
12977;DHT22;6553;48.412;9.514;2022-09-29T08:36:17;17.30;70.60
12977;DHT22;6553;48.412;9.514;2022-09-29T08:38:46;17.40;70.70
12977;DHT22;6553;48.412;9.514;2022-09-29T08:44:40;17.40;70.60
12977;DHT22;6553;48.412;9.514;2022-09-29T08:47:13;17.40;70.50
12977;DHT22;6553;48.412;9.514;2022-09-29T08:49:58;17.40;70.50
12977;DHT22;6553;48.412;9.514;2022-09-29T08:52:31;17.40;70.60
12977;DHT22;6553;48.412;9.514;2022-09-29T08:55:18;17.40;70.50
12977;DHT22;6553;48.412;9.514;2022-09-29T08:57:47;17.40;70.50
12977;DHT22;6553;48.412;9.514;2022-09-29T09:00:18;17.40;70.50
12977;DHT22;6553;48.412;9.514;2022-09-29T09:02:53;17.40;70.50
12977;DHT22;6553;48.412;9.514;2022-09-29T09:25:32;17.40;70.20
12977;DHT22;6553;48.412;9.514;2022-09-29T09:28:16;17.40;70.10
12977;DHT22;6553;48.412;9.514;2022-09-29T09:33:52;17.40;70.10
12977;DHT22;6553;48.412;9.514;2022-09-29T09:36:44;17.40;70.10
12977;DHT22;6553;48.412;9.514;2022-09-29T09:41:59;17.40;70.10
12977;DHT22;6553;48.412;9.514;2022-09-29T09:44:41;17.50;70.20
12977;DHT22;6553;48.412;9.514;2022-09-29T09:50:14;17.50;70.20
12977;DHT22;6553;48.412;9.514;2022-09-29T09:52:51;17.40;70.90
12977;DHT22;6553;48.412;9.514;2022-09-29T09:55:22;17.50;70.20
12977;DHT22;6553;48.412;9.514;2022-09-29T09:58:11;17.50;70.20
12977;DHT22;6553;48.412;9.514;2022-09-29T10:00:57;17.50;70.20
12977;DHT22;6553;48.412;9.514;2022-09-29T10:03:29;17.50;70.20
12977;DHT22;6553;48.412;9.514;2022-09-29T10:05:56;17.50;70.20
12977;DHT22;6553;48.412;9.514;2022-09-29T10:10:57;17.50;70.20
12977;DHT22;6553;48.412;9.514;2022-09-29T10:13:26;17.50;70.20
12977;DHT22;6553;48.412;9.514;2022-09-29T10:16:20;17.50;70.20
12977;DHT22;6553;48.412;9.514;2022-09-29T10:18:50;17.50;70.20
12977;DHT22;6553;48.412;9.514;2022-09-29T10:23:58;17.50;70.20
12977;DHT22;6553;48.412;9.514;2022-09-29T10:26:39;17.50;70.20
12977;DHT22;6553;48.412;9.514;2022-09-29T10:32:15;17.50;70.20
12977;DHT22;6553;48.412;9.514;2022-09-29T10:34:52;17.50;70.20
12977;DHT22;6553;48.412;9.514;2022-09-29T10:37:34;17.50;70.20
12977;DHT22;6553;48.412;9.514;2022-09-29T10:40:14;17.50;70.20
12977;DHT22;6553;48.412;9.514;2022-09-29T10:42:44;17.50;70.20
12977;DHT22;6553;48.412;9.514;2022-09-29T10:45:22;17.50;69.80
12977;DHT22;6553;48.412;9.514;2022-09-29T10:50:31;17.50;70.00
12977;DHT22;6553;48.412;9.514;2022-09-29T10:53:03;17.50;69.70
12977;DHT22;6553;48.412;9.514;2022-09-29T10:55:35;17.50;69.80
12977;DHT22;6553;48.412;9.514;2022-09-29T10:58:33;17.50;69.80
12977;DHT22;6553;48.412;9.514;2022-09-29T11:01:08;17.50;69.60
12977;DHT22;6553;48.412;9.514;2022-09-29T11:06:39;17.60;69.50
12977;DHT22;6553;48.412;9.514;2022-09-29T11:11:52;17.60;69.30
12977;DHT22;6553;48.412;9.514;2022-09-29T11:16:56;17.60;69.50
12977;DHT22;6553;48.412;9.514;2022-09-29T11:19:25;17.60;69.50
12977;DHT22;6553;48.412;9.514;2022-09-29T11:22:09;17.50;69.10
12977;DHT22;6553;48.412;9.514;2022-09-29T11:28:22;17.50;69.00
12977;DHT22;6553;48.412;9.514;2022-09-29T11:39:56;17.60;69.10
12977;DHT22;6553;48.412;9.514;2022-09-29T11:52:21;17.60;69.00
12977;DHT22;6553;48.412;9.514;2022-09-29T12:00:47;17.60;69.20
12977;DHT22;6553;48.412;9.514;2022-09-29T12:12:43;17.60;69.10
12977;DHT22;6553;48.412;9.514;2022-09-29T12:15:29;17.60;69.30
12977;DHT22;6553;48.412;9.514;2022-09-29T12:18:11;17.60;69.20
12977;DHT22;6553;48.412;9.514;2022-09-29T12:20:43;17.60;69.20
12977;DHT22;6553;48.412;9.514;2022-09-29T12:23:13;17.60;69.20
12977;DHT22;6553;48.412;9.514;2022-09-29T12:25:58;17.60;69.30
12977;DHT22;6553;48.412;9.514;2022-09-29T12:28:30;17.60;69.00
12977;DHT22;6553;48.412;9.514;2022-09-29T12:31:28;17.60;69.10
12977;DHT22;6553;48.412;9.514;2022-09-29T12:34:05;17.60;69.00
12977;DHT22;6553;48.412;9.514;2022-09-29T12:50:56;17.60;69.20
12977;DHT22;6553;48.412;9.514;2022-09-29T12:53:38;17.60;69.20
12977;DHT22;6553;48.412;9.514;2022-09-29T12:56:23;17.60;69.30
12977;DHT22;6553;48.412;9.514;2022-09-29T12:59:13;17.60;69.30
12977;DHT22;6553;48.412;9.514;2022-09-29T13:01:55;17.50;69.30
12977;DHT22;6553;48.412;9.514;2022-09-29T13:07:36;17.60;69.40
12977;DHT22;6553;48.412;9.514;2022-09-29T13:10:35;17.60;69.30
12977;DHT22;6553;48.412;9.514;2022-09-29T13:19:04;17.60;69.40
12977;DHT22;6553;48.412;9.514;2022-09-29T13:24:48;17.60;69.40
12977;DHT22;6553;48.412;9.514;2022-09-29T13:27:30;17.60;69.50
12977;DHT22;6553;48.412;9.514;2022-09-29T13:33:08;17.60;69.50
12977;DHT22;6553;48.412;9.514;2022-09-29T13:35:41;17.60;69.30
12977;DHT22;6553;48.412;9.514;2022-09-29T13:38:18;17.60;69.50
12977;DHT22;6553;48.412;9.514;2022-09-29T13:41:10;17.60;69.40
12977;DHT22;6553;48.412;9.514;2022-09-29T13:54:38;17.60;69.60
12977;DHT22;6553;48.412;9.514;2022-09-29T14:10:43;17.60;69.70
12977;DHT22;6553;48.412;9.514;2022-09-29T14:13:30;17.60;69.70
12977;DHT22;6553;48.412;9.514;2022-09-29T14:19:22;17.60;69.70
12977;DHT22;6553;48.412;9.514;2022-09-29T14:21:59;17.60;69.70
12977;DHT22;6553;48.412;9.514;2022-09-29T14:35:38;17.60;69.80
12977;DHT22;6553;48.412;9.514;2022-09-29T14:38:16;17.60;69.90
12977;DHT22;6553;48.412;9.514;2022-09-29T14:43:57;17.60;69.80
12977;DHT22;6553;48.412;9.514;2022-09-29T14:53:08;17.60;69.80
12977;DHT22;6553;48.412;9.514;2022-09-29T14:56:07;17.50;69.80
12977;DHT22;6553;48.412;9.514;2022-09-29T14:59:10;17.50;69.80
12977;DHT22;6553;48.412;9.514;2022-09-29T15:04:45;17.50;69.80
12977;DHT22;6553;48.412;9.514;2022-09-29T15:07:14;17.50;69.90
12977;DHT22;6553;48.412;9.514;2022-09-29T15:09:51;17.50;70.00
12977;DHT22;6553;48.412;9.514;2022-09-29T15:12:30;17.50;70.00
12977;DHT22;6553;48.412;9.514;2022-09-29T15:14:57;17.50;70.00
12977;DHT22;6553;48.412;9.514;2022-09-29T15:17:47;17.50;70.00
12977;DHT22;6553;48.412;9.514;2022-09-29T15:20:31;17.50;70.20
12977;DHT22;6553;48.412;9.514;2022-09-29T15:23:43;17.50;70.20
12977;DHT22;6553;48.412;9.514;2022-09-29T15:26:12;17.50;70.20
12977;DHT22;6553;48.412;9.514;2022-09-29T15:28:40;17.50;70.20
12977;DHT22;6553;48.412;9.514;2022-09-29T15:31:15;17.50;70.20
12977;DHT22;6553;48.412;9.514;2022-09-29T15:33:44;17.50;70.20
12977;DHT22;6553;48.412;9.514;2022-09-29T15:36:24;17.50;70.20
12977;DHT22;6553;48.412;9.514;2022-09-29T15:41:38;17.50;70.20
12977;DHT22;6553;48.412;9.514;2022-09-29T15:44:13;17.50;70.20
12977;DHT22;6553;48.412;9.514;2022-09-29T15:46:50;17.50;70.20
12977;DHT22;6553;48.412;9.514;2022-09-29T15:49:27;17.50;70.20
12977;DHT22;6553;48.412;9.514;2022-09-29T15:52:05;17.50;70.20
12977;DHT22;6553;48.412;9.514;2022-09-29T15:54:40;17.50;70.20
12977;DHT22;6553;48.412;9.514;2022-09-29T15:57:31;17.50;70.20
12977;DHT22;6553;48.412;9.514;2022-09-29T16:06:00;17.50;70.20
12977;DHT22;6553;48.412;9.514;2022-09-29T16:08:36;17.50;70.20
12977;DHT22;6553;48.412;9.514;2022-09-29T16:11:07;17.50;70.20
12977;DHT22;6553;48.412;9.514;2022-09-29T16:13:40;17.50;70.20
12977;DHT22;6553;48.412;9.514;2022-09-29T16:16:14;17.50;70.20
12977;DHT22;6553;48.412;9.514;2022-09-29T16:18:48;17.50;70.20
12977;DHT22;6553;48.412;9.514;2022-09-29T16:21:20;17.50;70.20
12977;DHT22;6553;48.412;9.514;2022-09-29T16:23:49;17.50;70.20
12977;DHT22;6553;48.412;9.514;2022-09-29T16:29:05;17.40;70.10
12977;DHT22;6553;48.412;9.514;2022-09-29T16:31:39;17.50;70.20
12977;DHT22;6553;48.412;9.514;2022-09-29T16:34:28;17.50;70.20
12977;DHT22;6553;48.412;9.514;2022-09-29T16:37:02;17.40;70.10
12977;DHT22;6553;48.412;9.514;2022-09-29T16:39:41;17.40;70.10
12977;DHT22;6553;48.412;9.514;2022-09-29T16:42:22;17.40;70.20
12977;DHT22;6553;48.412;9.514;2022-09-29T16:44:52;17.50;70.50
12977;DHT22;6553;48.412;9.514;2022-09-29T16:47:30;17.40;70.30
12977;DHT22;6553;48.412;9.514;2022-09-29T16:50:03;17.40;70.30
12977;DHT22;6553;48.412;9.514;2022-09-29T16:52:48;17.40;70.30
12977;DHT22;6553;48.412;9.514;2022-09-29T16:55:25;17.40;70.40
12977;DHT22;6553;48.412;9.514;2022-09-29T17:00:40;17.40;70.40
12977;DHT22;6553;48.412;9.514;2022-09-29T17:03:06;17.40;70.50
12977;DHT22;6553;48.412;9.514;2022-09-29T17:05:38;17.40;70.50
12977;DHT22;6553;48.412;9.514;2022-09-29T17:08:15;17.40;70.50
12977;DHT22;6553;48.412;9.514;2022-09-29T17:10:45;17.40;70.50
12977;DHT22;6553;48.412;9.514;2022-09-29T17:13:12;17.40;70.50
12977;DHT22;6553;48.412;9.514;2022-09-29T17:15:41;17.40;70.60
12977;DHT22;6553;48.412;9.514;2022-09-29T17:18:14;17.40;70.70
12977;DHT22;6553;48.412;9.514;2022-09-29T17:20:41;17.40;70.60
12977;DHT22;6553;48.412;9.514;2022-09-29T17:23:08;17.40;70.60
12977;DHT22;6553;48.412;9.514;2022-09-29T17:25:35;17.40;70.60
12977;DHT22;6553;48.412;9.514;2022-09-29T17:28:12;17.40;70.60
12977;DHT22;6553;48.412;9.514;2022-09-29T17:30:45;17.40;70.70
12977;DHT22;6553;48.412;9.514;2022-09-29T17:33:14;17.40;70.70
12977;DHT22;6553;48.412;9.514;2022-09-29T17:35:48;17.40;70.70
12977;DHT22;6553;48.412;9.514;2022-09-29T17:38:17;17.40;70.80
12977;DHT22;6553;48.412;9.514;2022-09-29T17:41:00;17.40;70.80
12977;DHT22;6553;48.412;9.514;2022-09-29T17:43:27;17.40;70.80
12977;DHT22;6553;48.412;9.514;2022-09-29T17:45:56;17.40;70.80
12977;DHT22;6553;48.412;9.514;2022-09-29T17:48:24;17.40;70.80
12977;DHT22;6553;48.412;9.514;2022-09-29T17:50:52;17.40;70.80
12977;DHT22;6553;48.412;9.514;2022-09-29T17:53:21;17.40;70.80
12977;DHT22;6553;48.412;9.514;2022-09-29T17:55:49;17.40;70.80
12977;DHT22;6553;48.412;9.514;2022-09-29T17:58:19;17.40;70.80
12977;DHT22;6553;48.412;9.514;2022-09-29T18:00:47;17.40;70.80
12977;DHT22;6553;48.412;9.514;2022-09-29T18:03:16;17.40;70.80
12977;DHT22;6553;48.412;9.514;2022-09-29T18:05:45;17.40;70.90
12977;DHT22;6553;48.412;9.514;2022-09-29T18:08:17;17.40;71.00
12977;DHT22;6553;48.412;9.514;2022-09-29T18:10:50;17.40;70.90
12977;DHT22;6553;48.412;9.514;2022-09-29T18:13:18;17.40;71.00
12977;DHT22;6553;48.412;9.514;2022-09-29T18:15:45;17.40;71.00
12977;DHT22;6553;48.412;9.514;2022-09-29T18:18:17;17.40;71.00
12977;DHT22;6553;48.412;9.514;2022-09-29T18:20:45;17.40;71.00
12977;DHT22;6553;48.412;9.514;2022-09-29T18:23:15;17.40;71.00
12977;DHT22;6553;48.412;9.514;2022-09-29T18:25:47;17.40;71.00
12977;DHT22;6553;48.412;9.514;2022-09-29T18:28:16;17.40;71.00
12977;DHT22;6553;48.412;9.514;2022-09-29T18:30:45;17.40;71.10
12977;DHT22;6553;48.412;9.514;2022-09-29T18:33:15;17.40;71.00
12977;DHT22;6553;48.412;9.514;2022-09-29T18:35:45;17.40;71.00
12977;DHT22;6553;48.412;9.514;2022-09-29T18:38:15;17.40;71.00
12977;DHT22;6553;48.412;9.514;2022-09-29T18:40:40;17.40;71.00
12977;DHT22;6553;48.412;9.514;2022-09-29T18:43:06;17.40;71.10
12977;DHT22;6553;48.412;9.514;2022-09-29T18:45:37;17.40;71.10
12977;DHT22;6553;48.412;9.514;2022-09-29T18:48:10;17.40;71.10
12977;DHT22;6553;48.412;9.514;2022-09-29T18:50:41;17.40;71.20
12977;DHT22;6553;48.412;9.514;2022-09-29T18:53:12;17.40;71.10
12977;DHT22;6553;48.412;9.514;2022-09-29T18:55:41;17.40;71.10
12977;DHT22;6553;48.412;9.514;2022-09-29T18:58:12;17.40;71.10
12977;DHT22;6553;48.412;9.514;2022-09-29T19:00:42;17.40;71.10
12977;DHT22;6553;48.412;9.514;2022-09-29T19:03:11;17.40;71.10
12977;DHT22;6553;48.412;9.514;2022-09-29T19:05:40;17.40;71.20
12977;DHT22;6553;48.412;9.514;2022-09-29T19:08:07;17.40;71.10
12977;DHT22;6553;48.412;9.514;2022-09-29T19:10:35;17.40;71.20
12977;DHT22;6553;48.412;9.514;2022-09-29T19:13:06;17.40;71.10
12977;DHT22;6553;48.412;9.514;2022-09-29T19:15:36;17.40;71.20
12977;DHT22;6553;48.412;9.514;2022-09-29T19:18:04;17.40;71.30
12977;DHT22;6553;48.412;9.514;2022-09-29T19:20:32;17.40;71.30
12977;DHT22;6553;48.412;9.514;2022-09-29T19:22:59;17.40;71.30
12977;DHT22;6553;48.412;9.514;2022-09-29T19:25:38;17.40;71.30
12977;DHT22;6553;48.412;9.514;2022-09-29T19:28:05;17.40;71.30
12977;DHT22;6553;48.412;9.514;2022-09-29T19:30:39;17.40;71.30
12977;DHT22;6553;48.412;9.514;2022-09-29T19:33:07;17.40;71.30
12977;DHT22;6553;48.412;9.514;2022-09-29T19:35:36;17.40;71.30
12977;DHT22;6553;48.412;9.514;2022-09-29T19:38:03;17.40;71.30
12977;DHT22;6553;48.412;9.514;2022-09-29T19:40:32;17.30;71.20
12977;DHT22;6553;48.412;9.514;2022-09-29T19:43:00;17.40;71.30
12977;DHT22;6553;48.412;9.514;2022-09-29T19:45:33;17.40;71.30
12977;DHT22;6553;48.412;9.514;2022-09-29T19:48:03;17.40;71.30
12977;DHT22;6553;48.412;9.514;2022-09-29T19:50:30;17.40;71.40
12977;DHT22;6553;48.412;9.514;2022-09-29T19:53:14;17.40;71.30
12977;DHT22;6553;48.412;9.514;2022-09-29T19:55:40;17.40;71.40
12977;DHT22;6553;48.412;9.514;2022-09-29T19:58:06;17.40;71.40
12977;DHT22;6553;48.412;9.514;2022-09-29T20:00:33;17.40;71.50